Time;durP1;ratioP1;P1;durP2;ratioP2;P2;SDS_P1;SDS_P2;PMS_P1;PMS_P2;Temp;Humidity;BMP_temperature;BMP_pressure;BME280_temperature;BME280_humidity;BME280_pressure;Samples;Min_cycle;Max_cycle;Signal;HPM_P1;HPM_P2
2022/08/29 00:00:15;;;;;;;5.95;2.70;;;;;;;17.68;67.15;100612.06;5053143;28;20037;-71
2022/08/29 00:02:40;;;;;;;5.85;2.78;;;;;;;17.65;66.99;100613.56;5052510;28;20037;-71
2022/08/29 00:05:06;;;;;;;7.22;2.83;;;;;;;17.63;66.79;100615.91;5052133;28;20033;-72
2022/08/29 00:07:32;;;;;;;4.88;2.60;;;;;;;17.61;66.99;100606.19;5058226;28;20025;-71
2022/08/29 00:09:57;;;;;;;5.50;2.80;;;;;;;17.62;66.80;100605.00;5056355;28;20044;-71
2022/08/29 00:12:23;;;;;;;6.68;3.25;;;;;;;17.58;66.69;100607.69;5055161;28;20025;-71
2022/08/29 00:14:48;;;;;;;5.22;3.03;;;;;;;17.53;66.69;100605.06;5057992;28;20036;-71
2022/08/29 00:17:14;;;;;;;6.50;3.20;;;;;;;17.49;67.11;100598.44;5057728;28;20040;-71
2022/08/29 00:19:39;;;;;;;4.45;2.60;;;;;;;17.45;67.44;100605.94;5055705;28;20021;-71
2022/08/29 00:22:05;;;;;;;7.57;3.28;;;;;;;17.39;67.28;100598.84;5048017;28;20032;-71
2022/08/29 00:24:30;;;;;;;6.68;3.28;;;;;;;17.32;67.80;100596.56;5052522;28;20037;-71
2022/08/29 00:26:59;;;;;;;7.32;3.05;;;;;;;17.32;68.65;100595.75;5053217;28;20029;-71
2022/08/29 00:29:24;;;;;;;8.10;2.97;;;;;;;17.27;68.31;100596.75;5047241;28;20112;-71
2022/08/29 00:31:50;;;;;;;4.43;2.90;;;;;;;17.23;68.50;100597.78;5056393;28;20068;-71
2022/08/29 00:34:15;;;;;;;6.47;2.88;;;;;;;17.19;68.75;100592.84;5056060;28;20033;-71
2022/08/29 00:36:41;;;;;;;6.10;2.95;;;;;;;17.19;69.34;100598.44;5057347;28;20041;-71
2022/08/29 00:39:06;;;;;;;7.30;3.13;;;;;;;17.16;68.68;100590.72;5053686;28;20021;-71
2022/08/29 00:41:32;;;;;;;8.40;3.05;;;;;;;17.13;68.94;100599.81;5056788;28;20097;-71
2022/08/29 00:43:57;;;;;;;8.65;3.10;;;;;;;17.11;68.63;100592.88;5057046;28;20029;-71
2022/08/29 00:46:38;;;;;;;7.78;3.03;;;;;;;17.11;68.98;100593.69;5057153;28;20040;-71
2022/08/29 00:49:06;;;;;;;6.55;3.30;;;;;;;17.06;68.93;100595.88;5063159;28;20120;-71
2022/08/29 00:51:31;;;;;;;7.57;3.20;;;;;;;17.05;69.06;100600.66;5057095;28;20059;-71
2022/08/29 00:53:59;;;;;;;6.05;3.20;;;;;;;17.07;69.58;100592.69;5044858;28;20029;-71
2022/08/29 00:56:25;;;;;;;6.82;3.55;;;;;;;17.03;69.85;100591.75;5056949;28;20036;-72
2022/08/29 00:58:53;;;;;;;8.10;2.92;;;;;;;17.03;69.68;100588.13;5045965;28;20045;-71
2022/08/29 01:01:18;;;;;;;6.40;3.00;;;;;;;16.97;69.11;100587.47;5032912;28;20033;-71
2022/08/29 01:03:44;;;;;;;4.45;2.90;;;;;;;16.96;68.84;100594.22;5047401;28;20032;-71
2022/08/29 01:06:12;;;;;;;5.25;2.72;;;;;;;16.94;69.44;100593.78;5035794;28;20025;-71
2022/08/29 01:08:38;;;;;;;5.63;3.58;;;;;;;16.95;69.56;100592.59;5047581;28;20037;-71
2022/08/29 01:13:47;;;;;;;6.15;2.80;;;;;;;16.90;68.92;100598.38;5029242;28;20044;-71
2022/08/29 01:16:13;;;;;;;4.45;2.97;;;;;;;16.87;69.60;100593.44;5055368;28;20033;-71
2022/08/29 01:18:39;;;;;;;6.72;3.38;;;;;;;16.87;69.42;100599.06;5055440;28;20067;-71
2022/08/29 01:21:17;;;;;;;5.85;3.10;;;;;;;16.82;69.43;100608.47;5047931;28;20029;-71
2022/08/29 01:24:04;;;;;;;5.88;2.90;;;;;;;16.83;69.13;100603.69;5047547;28;20036;-71
2022/08/29 01:26:30;;;;;;;7.50;3.35;;;;;;;16.81;69.19;100601.22;5047739;28;20025;-71
2022/08/29 01:28:55;;;;;;;5.32;2.95;;;;;;;16.77;69.13;100599.41;5054447;28;20067;-71
2022/08/29 01:31:23;;;;;;;5.65;3.20;;;;;;;16.72;69.52;100598.41;5065047;28;20029;-71
2022/08/29 01:33:55;;;;;;;4.78;2.97;;;;;;;16.71;69.25;100599.53;5047894;28;20064;-71
2022/08/29 01:36:26;;;;;;;5.68;3.20;;;;;;;16.66;70.25;100594.13;5055014;28;20039;-71
2022/08/29 01:38:53;;;;;;;8.90;3.72;;;;;;;16.63;69.94;100592.00;5038862;28;20106;-71
2022/08/29 01:41:19;;;;;;;7.20;3.10;;;;;;;16.63;70.03;100589.19;5048897;28;20032;-71
2022/08/29 01:43:50;;;;;;;7.32;2.97;;;;;;;16.60;69.81;100589.84;5054829;28;20052;-71
2022/08/29 01:46:20;;;;;;;5.25;2.90;;;;;;;16.54;70.11;100600.41;5038643;28;20478;-71
2022/08/29 01:48:46;;;;;;;8.38;3.17;;;;;;;16.55;70.29;100592.84;5047718;28;20393;-71
2022/08/29 01:51:12;;;;;;;5.72;3.10;;;;;;;16.54;70.13;100597.59;5054528;28;20037;-71
2022/08/29 01:53:37;;;;;;;5.80;3.35;;;;;;;16.56;69.94;100590.84;5051530;28;20512;-71
2022/08/29 01:56:13;;;;;;;7.22;3.38;;;;;;;16.49;70.14;100583.78;5047806;28;20235;-71
2022/08/29 01:58:39;;;;;;;5.18;3.00;;;;;;;16.49;69.84;100588.53;5051370;28;20426;-71
2022/08/29 02:01:05;;;;;;;6.43;3.65;;;;;;;16.52;69.57;100585.09;5055484;28;20065;-71
2022/08/29 02:03:31;;;;;;;6.38;3.13;;;;;;;16.48;69.63;100589.72;5046958;28;20091;-71
2022/08/29 02:05:59;;;;;;;5.22;2.97;;;;;;;16.44;69.75;100586.75;5049963;28;20029;-71
2022/08/29 02:08:25;;;;;;;6.47;3.33;;;;;;;16.42;70.06;100585.44;5054540;28;20041;-71
2022/08/29 02:10:50;;;;;;;5.47;3.50;;;;;;;16.40;70.09;100580.16;5054506;28;20025;-71
2022/08/29 02:13:15;;;;;;;5.78;3.28;;;;;;;16.39;70.32;100580.50;5048642;28;20036;-71
2022/08/29 02:15:41;;;;;;;5.57;2.90;;;;;;;16.39;70.14;100572.09;5055857;28;20021;-71
2022/08/29 02:18:06;;;;;;;6.15;3.38;;;;;;;16.36;69.87;100572.75;5055621;28;20037;-71
2022/08/29 02:20:32;;;;;;;7.78;3.40;;;;;;;16.37;69.41;100563.19;5052747;28;20036;-71
2022/08/29 02:22:58;;;;;;;6.32;2.90;;;;;;;16.34;69.45;100570.25;5053869;28;20102;-71
2022/08/29 02:25:42;;;;;;;5.35;2.85;;;;;;;16.25;70.12;100561.06;5055927;28;20033;-71
2022/08/29 02:28:10;;;;;;;9.38;3.20;;;;;;;16.21;70.15;100560.06;5044826;28;20493;-71
2022/08/29 02:30:38;;;;;;;6.47;3.17;;;;;;;16.19;70.27;100562.38;5030010;28;20036;-71
2022/08/29 02:33:03;;;;;;;6.57;3.20;;;;;;;16.18;70.80;100564.34;5036478;28;20043;-71
2022/08/29 02:35:29;;;;;;;4.53;2.90;;;;;;;16.17;70.33;100559.91;5054212;28;20477;-71
2022/08/29 02:37:55;;;;;;;7.28;3.33;;;;;;;16.19;70.39;100563.19;5051721;28;20040;-72
2022/08/29 02:40:20;;;;;;;7.32;3.13;;;;;;;16.17;70.47;100565.50;5041539;28;20034;-72
2022/08/29 02:42:46;;;;;;;6.93;3.13;;;;;;;16.13;70.07;100567.34;5050383;28;20025;-71
2022/08/29 02:45:11;;;;;;;6.55;2.75;;;;;;;16.12;70.03;100562.03;5055788;28;20037;-71
2022/08/29 02:47:37;;;;;;;5.32;3.03;;;;;;;16.09;70.74;100557.91;5054125;28;20059;-71
2022/08/29 02:50:04;;;;;;;8.40;3.40;;;;;;;16.10;70.42;100559.56;5055295;28;20541;-71
2022/08/29 02:52:30;;;;;;;6.80;3.15;;;;;;;16.09;70.38;100563.53;5051288;28;20446;-71
2022/08/29 02:54:55;;;;;;;7.47;3.38;;;;;;;16.05;70.27;100563.38;5052314;28;20032;-71
2022/08/29 02:57:21;;;;;;;5.60;3.15;;;;;;;15.99;69.94;100563.84;5052205;28;20045;-71
2022/08/29 02:59:47;;;;;;;6.43;3.35;;;;;;;15.98;70.65;100567.81;5048350;28;20037;-71
2022/08/29 03:02:12;;;;;;;8.25;3.47;;;;;;;15.97;70.45;100577.38;5046985;28;20029;-71
2022/08/29 03:04:38;;;;;;;5.78;3.10;;;;;;;15.93;70.59;100571.59;5045198;28;20029;-71
2022/08/29 03:07:04;;;;;;;5.40;3.08;;;;;;;15.88;70.93;100566.16;5047309;28;20032;-71
2022/08/29 03:09:29;;;;;;;6.60;3.22;;;;;;;15.86;71.80;100566.50;5054356;28;20094;-71
2022/08/29 03:11:55;;;;;;;6.25;2.97;;;;;;;15.85;71.73;100558.41;5054301;28;20029;-71
2022/08/29 03:14:21;;;;;;;7.28;2.70;;;;;;;15.84;71.43;100562.38;5047168;28;20397;-71
2022/08/29 03:16:46;;;;;;;5.65;3.25;;;;;;;15.81;71.04;100563.03;5049213;28;20493;-71
2022/08/29 03:19:12;;;;;;;7.82;3.15;;;;;;;15.81;71.28;100551.81;5052594;28;20055;-71
2022/08/29 03:21:37;;;;;;;6.18;3.33;;;;;;;15.79;71.85;100554.94;5045170;28;20033;-71
2022/08/29 03:24:03;;;;;;;5.30;2.92;;;;;;;15.78;71.24;100547.69;5050130;28;20037;-71
2022/08/29 03:26:29;;;;;;;7.57;3.45;;;;;;;15.74;71.24;100541.13;5053194;28;20033;-71
2022/08/29 03:28:54;;;;;;;6.43;3.33;;;;;;;15.68;71.81;100541.56;5055961;28;20040;-71
2022/08/29 03:31:20;;;;;;;7.53;3.15;;;;;;;15.66;72.00;100533.50;5060999;28;20032;-71
2022/08/29 03:33:45;;;;;;;7.00;3.20;;;;;;;15.68;71.84;100534.00;5056630;28;20042;-71
2022/08/29 03:36:11;;;;;;;7.32;3.20;;;;;;;15.64;71.64;100531.03;5058568;28;20056;-71
2022/08/29 03:38:39;;;;;;;6.00;3.30;;;;;;;15.61;71.81;100530.84;5057140;28;20029;-71
2022/08/29 03:41:05;;;;;;;4.57;3.20;;;;;;;15.61;71.70;100526.06;5056159;28;20120;-71
2022/08/29 03:43:31;;;;;;;5.28;3.22;;;;;;;15.60;71.83;100532.84;5038180;28;20033;-71
2022/08/29 03:45:56;;;;;;;8.70;3.35;;;;;;;15.57;72.24;100524.25;5058374;28;20548;-72
2022/08/29 03:48:22;;;;;;;6.25;3.00;;;;;;;15.58;71.96;100525.91;5058263;28;20051;-71
2022/08/29 03:50:48;;;;;;;5.82;3.17;;;;;;;15.58;71.82;100518.34;5057979;28;20040;-71
2022/08/29 03:53:13;;;;;;;5.57;3.10;;;;;;;15.57;72.12;100518.66;5053253;28;20509;-71
2022/08/29 03:55:39;;;;;;;6.75;3.28;;;;;;;15.51;71.95;100522.78;5057396;28;20037;-71
2022/08/29 03:58:04;;;;;;;7.13;3.55;;;;;;;15.52;72.43;100524.44;5056470;28;20048;-71
2022/08/29 04:00:30;;;;;;;8.02;3.67;;;;;;;15.57;72.34;100522.31;5052847;28;20033;-71
2022/08/29 04:02:57;;;;;;;8.93;3.15;;;;;;;15.52;71.76;100527.25;5038264;28;20033;-71
2022/08/29 04:05:22;;;;;;;4.88;3.30;;;;;;;15.52;71.61;100527.25;5055830;28;20103;-71
2022/08/29 04:07:51;;;;;;;8.57;3.50;;;;;;;15.42;71.64;100529.16;5056644;28;20024;-71
2022/08/29 04:10:23;;;;;;;5.65;3.40;;;;;;;15.37;72.27;100520.94;5049929;28;20056;-71
2022/08/29 04:12:49;;;;;;;6.65;3.22;;;;;;;15.39;72.44;100535.44;5051165;28;20033;-71
2022/08/29 04:15:14;;;;;;;5.68;3.42;;;;;;;15.36;72.40;100527.69;5056493;28;20086;-71
2022/08/29 04:17:40;;;;;;;6.47;3.30;;;;;;;15.35;71.79;100526.03;5052775;28;20052;-71
2022/08/29 04:20:06;;;;;;;5.80;3.35;;;;;;;15.36;72.20;100533.28;5048489;28;20025;-71
2022/08/29 04:22:33;;;;;;;6.50;3.03;;;;;;;15.33;72.21;100531.13;5056479;28;20051;-71
2022/08/29 04:24:59;;;;;;;5.97;3.08;;;;;;;15.34;72.18;100540.34;5053882;28;20358;-71
2022/08/29 04:27:24;;;;;;;4.80;2.95;;;;;;;15.32;72.09;100528.66;5047168;28;20030;-71
2022/08/29 04:29:50;;;;;;;5.85;2.80;;;;;;;15.32;72.14;100529.50;5054913;28;20025;-71
2022/08/29 04:32:16;;;;;;;8.45;3.47;;;;;;;15.30;72.22;100530.97;5054659;28;20028;-71
2022/08/29 04:34:42;;;;;;;4.50;2.85;;;;;;;15.30;72.01;100531.78;5052148;28;20038;-71
2022/08/29 04:37:07;;;;;;;4.60;2.85;;;;;;;15.30;72.25;100539.38;5057349;28;20036;-71
2022/08/29 04:39:33;;;;;;;6.60;3.35;;;;;;;15.30;71.46;100534.59;5051804;28;20386;-71
2022/08/29 04:41:58;;;;;;;7.32;3.10;;;;;;;15.25;71.63;100534.72;5053110;28;20087;-71
2022/08/29 04:44:24;;;;;;;6.38;3.25;;;;;;;15.24;71.45;100532.25;5055027;28;20033;-71
2022/08/29 04:46:50;;;;;;;5.72;3.35;;;;;;;15.23;72.02;100545.41;5057421;28;20033;-71
2022/08/29 04:49:15;;;;;;;5.25;3.25;;;;;;;15.18;71.79;100539.97;5056893;28;20036;-71
2022/08/29 04:51:41;;;;;;;4.90;2.92;;;;;;;15.17;71.59;100543.94;5055901;28;20033;-71
2022/08/29 04:54:06;;;;;;;5.68;2.92;;;;;;;15.14;71.72;100544.56;5044101;28;20033;-71
2022/08/29 04:56:32;;;;;;;6.55;3.33;;;;;;;15.14;71.80;100544.56;5055743;28;20519;-72
2022/08/29 04:58:57;;;;;;;5.63;3.10;;;;;;;15.13;72.18;100540.13;5056028;28;20389;-71
2022/08/29 05:01:24;;;;;;;6.43;3.10;;;;;;;15.07;71.87;100542.25;5055351;28;20091;-72
2022/08/29 05:03:51;;;;;;;5.35;3.38;;;;;;;15.02;72.04;100550.78;5037636;28;20033;-71
2022/08/29 05:06:17;;;;;;;5.43;3.00;;;;;;;15.03;72.93;100549.63;5054097;28;20036;-72
2022/08/29 05:08:42;;;;;;;5.80;3.22;;;;;;;15.02;72.96;100553.59;5051589;28;20033;-71
2022/08/29 05:11:11;;;;;;;6.85;3.00;;;;;;;15.00;73.23;100555.06;5053809;28;20040;-72
2022/08/29 05:13:36;;;;;;;6.82;2.92;;;;;;;14.98;72.41;100553.38;5055808;28;20025;-72
2022/08/29 05:16:06;;;;;;;4.80;3.13;;;;;;;14.97;72.88;100554.53;5051819;28;20040;-72
2022/08/29 05:18:32;;;;;;;7.03;3.33;;;;;;;14.94;72.58;100554.38;5048708;28;20025;-71
2022/08/29 05:20:57;;;;;;;6.80;3.05;;;;;;;14.96;72.62;100554.88;5054008;28;20033;-71
2022/08/29 05:23:23;;;;;;;4.80;3.15;;;;;;;14.92;72.51;100560.28;5055621;28;20028;-72
2022/08/29 05:25:54;;;;;;;7.68;3.60;;;;;;;14.91;72.77;100561.44;5054066;28;20044;-71
2022/08/29 05:28:20;;;;;;;7.60;3.22;;;;;;;14.90;72.50;100568.16;5046295;28;20029;-72
2022/08/29 05:30:45;;;;;;;7.30;3.03;;;;;;;14.88;73.18;100569.66;5056628;28;20684;-71
2022/08/29 05:33:11;;;;;;;6.68;3.15;;;;;;;14.87;72.85;100568.81;5054277;28;20029;-71
2022/08/29 05:35:37;;;;;;;6.18;3.10;;;;;;;14.82;73.24;100570.91;5050028;28;20021;-72
2022/08/29 05:38:02;;;;;;;5.60;3.00;;;;;;;14.84;73.16;100565.84;5043170;28;20040;-72
2022/08/29 05:40:28;;;;;;;5.25;3.22;;;;;;;14.82;73.56;100574.56;5031254;28;20029;-72
2022/08/29 05:42:54;;;;;;;5.53;3.20;;;;;;;14.83;74.38;100575.38;5055180;28;20056;-71
2022/08/29 05:45:19;;;;;;;5.45;3.00;;;;;;;14.85;74.14;100573.91;5048683;28;20071;-71
2022/08/29 05:47:45;;;;;;;9.27;2.92;;;;;;;14.90;73.94;100579.34;5043941;28;20036;-71
2022/08/29 05:50:12;;;;;;;8.68;3.80;;;;;;;14.88;73.52;100584.44;5055937;28;20037;-71
2022/08/29 05:52:39;;;;;;;6.60;3.10;;;;;;;14.93;74.26;100589.91;5047169;28;20104;-71
2022/08/29 05:55:05;;;;;;;6.05;3.40;;;;;;;15.02;73.56;100589.13;5051706;28;20059;-71
2022/08/29 05:57:30;;;;;;;5.10;2.92;;;;;;;15.08;73.75;100585.03;5048888;28;20486;-71
2022/08/29 05:59:56;;;;;;;5.78;2.70;;;;;;;15.12;74.29;100580.44;5046682;28;20052;-71
2022/08/29 06:02:22;;;;;;;6.43;3.00;;;;;;;15.16;73.08;100579.47;5047297;28;20040;-71
2022/08/29 06:04:48;;;;;;;6.70;2.97;;;;;;;15.25;74.58;100590.69;5054919;28;20037;-71
2022/08/29 06:07:14;;;;;;;9.90;3.38;;;;;;;15.31;75.67;100583.78;5052903;28;20036;-71
2022/08/29 06:09:40;;;;;;;8.38;3.08;;;;;;;15.40;77.01;100579.03;5055737;28;20393;-71
2022/08/29 06:12:05;;;;;;;11.52;3.45;;;;;;;15.51;77.29;100578.75;5056052;28;20032;-72
2022/08/29 06:14:31;;;;;;;4.63;3.00;;;;;;;15.62;76.83;100580.09;5051208;28;20029;-71
2022/08/29 06:16:57;;;;;;;7.45;3.38;;;;;;;15.75;78.29;100581.97;5054588;28;20059;-72
2022/08/29 06:19:22;;;;;;;9.63;3.20;;;;;;;15.85;78.06;100573.25;5055541;28;20040;-71
2022/08/29 06:21:48;;;;;;;10.38;3.67;;;;;;;16.00;78.39;100577.53;5044425;28;20025;-71
2022/08/29 06:24:14;;;;;;;9.90;2.95;;;;;;;16.14;78.17;100579.34;5054857;28;20040;-72
2022/08/29 06:26:39;;;;;;;5.38;2.75;;;;;;;16.29;77.67;100582.47;5052183;28;20029;-71
2022/08/29 06:29:06;;;;;;;10.02;3.40;;;;;;;16.45;78.07;100577.19;5053939;28;20033;-71
2022/08/29 06:31:31;;;;;;;8.70;3.05;;;;;;;16.62;75.24;100584.72;5034572;28;20093;-71
2022/08/29 06:33:58;;;;;;;5.85;3.00;;;;;;;16.80;75.50;100579.94;5048313;28;20396;-71
2022/08/29 06:36:26;;;;;;;8.52;3.55;;;;;;;16.98;74.59;100580.69;5054310;28;20033;-72
2022/08/29 06:38:54;;;;;;;7.15;2.85;;;;;;;17.12;74.77;100575.69;5054353;28;20025;-72
2022/08/29 06:41:19;;;;;;;7.57;3.42;;;;;;;17.29;75.34;100571.16;5036209;28;20029;-71
2022/08/29 06:43:45;;;;;;;8.68;3.22;;;;;;;17.47;74.17;100575.53;5053385;28;20069;-72
2022/08/29 06:46:25;;;;;;;6.47;3.17;;;;;;;17.65;73.20;100585.47;5054505;28;20090;-72
2022/08/29 06:48:50;;;;;;;6.05;2.70;;;;;;;17.82;71.54;100580.94;5051024;28;20029;-72
2022/08/29 06:51:16;;;;;;;7.93;3.00;;;;;;;18.00;71.75;100578.84;5054126;28;20106;-72
2022/08/29 06:53:41;;;;;;;7.97;2.60;;;;;;;18.15;71.05;100583.00;5054568;28;20037;-72
2022/08/29 06:56:07;;;;;;;8.88;3.20;;;;;;;18.26;70.02;100584.25;5043528;28;20038;-72
2022/08/29 06:58:33;;;;;;;7.90;3.17;;;;;;;18.41;70.58;100589.22;5054151;28;20566;-72
2022/08/29 07:01:06;;;;;;;9.75;3.10;;;;;;;18.61;69.21;100593.19;5048698;28;20041;-71
2022/08/29 07:03:32;;;;;;;5.97;2.53;;;;;;;18.76;68.48;100583.28;5053629;28;21176;-72
2022/08/29 07:05:57;;;;;;;5.93;2.50;;;;;;;18.87;67.95;100578.03;5059095;28;20036;-71
2022/08/29 07:08:23;;;;;;;9.65;3.00;;;;;;;19.03;66.93;100581.81;5053480;28;20039;-72
2022/08/29 07:10:49;;;;;;;7.93;2.55;;;;;;;19.14;66.58;100573.75;5059052;28;20032;-72
2022/08/29 07:13:14;;;;;;;4.53;2.42;;;;;;;19.26;66.52;100572.91;5058398;28;20029;-72
2022/08/29 07:15:40;;;;;;;4.80;2.53;;;;;;;19.41;65.77;100575.84;5049826;28;20040;-72
2022/08/29 07:18:05;;;;;;;5.45;2.40;;;;;;;19.53;65.84;100571.38;5061192;28;20033;-71
2022/08/29 07:20:31;;;;;;;7.90;2.30;;;;;;;19.62;65.30;100563.63;5034842;28;20052;-71
2022/08/29 07:22:56;;;;;;;7.90;2.63;;;;;;;19.74;65.44;100565.63;5018235;28;20123;-71
2022/08/29 07:25:22;;;;;;;5.88;2.60;;;;;;;19.82;65.34;100576.78;5023954;28;20033;-71
2022/08/29 07:27:47;;;;;;;6.65;2.42;;;;;;;19.95;64.81;100573.94;5030213;28;20532;-72
2022/08/29 07:30:15;;;;;;;5.10;2.72;;;;;;;20.08;64.68;100569.88;5042410;28;20038;-72
2022/08/29 07:32:44;;;;;;;5.40;1.90;;;;;;;20.27;64.06;100569.25;5024783;28;20067;-72
2022/08/29 07:35:13;;;;;;;6.47;2.70;;;;;;;20.41;64.58;100566.00;5024439;28;20033;-73
2022/08/29 07:37:39;;;;;;;6.63;2.30;;;;;;;20.57;63.29;100566.09;5023467;28;20025;-72
2022/08/29 07:40:06;;;;;;;6.20;2.20;;;;;;;20.66;61.94;100563.91;5039954;28;20032;-72
2022/08/29 07:42:33;;;;;;;4.75;2.17;;;;;;;20.72;61.38;100566.09;5010057;28;20133;-72
2022/08/29 07:44:58;;;;;;;7.18;2.10;;;;;;;20.87;61.78;100572.97;5015864;28;20029;-69
2022/08/29 07:47:25;;;;;;;4.03;2.47;;;;;;;20.98;60.44;100568.44;5023956;28;20086;-69
2022/08/29 07:49:51;;;;;;;5.50;2.05;;;;;;;21.09;60.84;100567.88;5033008;28;20037;-70
2022/08/29 07:52:17;;;;;;;5.20;2.47;;;;;;;21.24;60.29;100569.06;5042429;28;20036;-70
2022/08/29 07:54:42;;;;;;;4.40;2.20;;;;;;;21.33;59.19;100553.56;5047618;28;20485;-70
2022/08/29 07:57:07;;;;;;;6.85;2.30;;;;;;;21.46;58.64;100559.97;5018425;28;20049;-70
2022/08/29 07:59:33;;;;;;;6.40;2.22;;;;;;;21.57;57.58;100554.56;5022315;28;20393;-70
2022/08/29 08:01:58;;;;;;;4.97;2.15;;;;;;;21.74;57.42;100564.66;5019124;28;20091;-70
2022/08/29 08:04:24;;;;;;;6.13;2.33;;;;;;;21.85;56.76;100554.41;5016629;28;20036;-70
2022/08/29 08:06:49;;;;;;;6.50;2.00;;;;;;;21.97;56.14;100550.63;5021228;28;20052;-70
2022/08/29 08:09:15;;;;;;;5.60;2.40;;;;;;;22.07;57.58;100555.69;5059065;28;20036;-70
2022/08/29 08:11:40;;;;;;;6.05;2.22;;;;;;;22.14;56.57;100546.53;5033052;28;20029;-70
2022/08/29 08:14:06;;;;;;;3.75;1.95;;;;;;;22.22;55.98;100548.34;5034233;28;20033;-70
2022/08/29 08:16:32;;;;;;;6.47;1.88;;;;;;;22.26;55.86;100552.09;5040144;28;20029;-69
2022/08/29 08:18:57;;;;;;;5.63;2.28;;;;;;;22.43;55.64;100550.81;5039724;28;20032;-69
2022/08/29 08:21:23;;;;;;;7.93;2.10;;;;;;;22.52;54.87;100552.22;5021421;28;20061;-69
2022/08/29 08:23:49;;;;;;;8.20;2.30;;;;;;;22.68;54.45;100552.13;5036772;28;20117;-70
2022/08/29 08:26:14;;;;;;;8.15;2.40;;;;;;;22.84;54.72;100554.00;5027454;28;20067;-70
2022/08/29 08:28:40;;;;;;;9.90;2.42;;;;;;;22.90;53.75;100553.34;5035401;28;20091;-70
2022/08/29 08:31:06;;;;;;;9.13;2.40;;;;;;;22.97;52.96;100553.47;5033143;28;20045;-70
2022/08/29 08:33:33;;;;;;;4.22;2.13;;;;;;;23.15;52.80;100552.97;5038520;28;20099;-70
2022/08/29 08:35:58;;;;;;;6.63;2.33;;;;;;;23.17;52.56;100556.22;5037380;28;20449;-70
2022/08/29 08:38:24;;;;;;;6.72;2.20;;;;;;;23.28;52.96;100551.56;5035104;28;20025;-70
2022/08/29 08:40:52;;;;;;;4.88;2.28;;;;;;;23.42;52.82;100546.13;5033831;28;20064;-70
2022/08/29 08:43:22;;;;;;;3.85;2.00;;;;;;;23.60;52.51;100542.78;5055705;28;20024;-70
2022/08/29 08:45:48;;;;;;;5.05;1.85;;;;;;;23.76;52.29;100549.09;5021917;28;20036;-70
2022/08/29 08:48:22;;;;;;;4.57;2.20;;;;;;;23.88;51.36;100542.38;5022991;28;20135;-70
2022/08/29 08:51:15;;;;;;;5.28;2.22;;;;;;;24.00;51.22;100544.16;5034282;28;20087;-70
2022/08/29 08:53:42;;;;;;;6.80;2.63;;;;;;;24.13;50.49;100541.91;5037717;28;20051;-70
2022/08/29 08:56:14;;;;;;;5.45;2.47;;;;;;;24.28;51.09;100540.88;5054213;28;20029;-70
2022/08/29 08:59:22;;;;;;;8.83;2.53;;;;;;;24.44;51.46;100543.53;5038817;28;20048;-70
2022/08/29 09:01:57;;;;;;;9.25;2.47;;;;;;;24.54;50.62;100531.47;5029716;28;20582;-70
2022/08/29 09:04:31;;;;;;;7.32;2.10;;;;;;;24.64;50.67;100547.81;5036568;28;20056;-71
2022/08/29 09:07:02;;;;;;;9.80;2.25;;;;;;;24.66;49.39;100553.91;5037705;28;20464;-68
2022/08/29 09:09:51;;;;;;;6.70;2.50;;;;;;;24.73;49.40;100550.31;5037598;28;20756;-69
2022/08/29 09:12:54;;;;;;;9.68;2.70;;;;;;;24.87;49.24;100552.50;5028782;28;20305;-69
2022/08/29 09:15:22;;;;;;;4.20;2.25;;;;;;;25.06;50.53;100548.63;5032773;28;20485;-73
2022/08/29 09:17:51;;;;;;;7.03;2.75;;;;;;;25.19;50.23;100552.84;5017471;28;20028;-72
2022/08/29 09:20:24;;;;;;;8.25;2.50;;;;;;;25.24;48.76;100549.63;5026047;28;20037;-72
2022/08/29 09:23:11;;;;;;;5.43;2.50;;;;;;;25.29;48.05;100540.72;5037356;28;20096;-72
2022/08/29 09:25:37;;;;;;;5.25;2.50;;;;;;;25.36;47.60;100543.63;5047514;28;20417;-72
2022/08/29 09:28:06;;;;;;;7.82;2.58;;;;;;;25.36;47.42;100542.81;5037074;28;20049;-73
2022/08/29 09:30:32;;;;;;;5.63;2.20;;;;;;;25.44;48.43;100533.13;5036632;28;20067;-73
2022/08/29 09:33:09;;;;;;;4.68;2.30;;;;;;;25.57;47.57;100531.56;5035359;28;20083;-73
2022/08/29 09:35:42;;;;;;;7.72;2.60;;;;;;;25.72;48.33;100532.50;5014886;28;20040;-73
2022/08/29 09:38:17;;;;;;;5.00;2.70;;;;;;;25.89;47.68;100541.56;5038839;28;20036;-73
2022/08/29 09:41:06;;;;;;;7.15;2.50;;;;;;;25.96;47.61;100539.56;5020339;28;20041;-73
2022/08/29 09:43:38;;;;;;;4.38;2.60;;;;;;;26.00;47.39;100537.56;5016033;28;20478;-73
2022/08/29 09:46:09;;;;;;;7.93;2.75;;;;;;;26.06;47.01;100543.69;5055014;28;20151;-73
2022/08/29 09:48:42;;;;;;;7.35;2.38;;;;;;;26.19;47.12;100550.66;5050690;28;20126;-73
2022/08/29 09:51:13;;;;;;;6.38;2.50;;;;;;;26.30;46.31;100542.97;5039305;28;20223;-70
2022/08/29 09:53:38;;;;;;;8.88;2.58;;;;;;;26.45;46.45;100540.19;5019172;28;20033;-73
2022/08/29 09:56:05;;;;;;;8.30;2.70;;;;;;;26.64;47.24;100545.56;5010565;28;20040;-72
2022/08/29 09:58:35;;;;;;;7.95;2.53;;;;;;;26.84;46.51;100548.03;5021776;28;20123;-72
2022/08/29 10:01:06;;;;;;;7.10;2.75;;;;;;;26.83;45.99;100549.25;5030523;28;20128;-73
2022/08/29 10:03:33;;;;;;;8.60;3.00;;;;;;;26.85;45.61;100549.66;5004553;28;20033;-72
2022/08/29 10:06:15;;;;;;;8.18;2.65;;;;;;;26.99;45.19;100546.00;5034784;28;20039;-73
2022/08/29 10:08:41;;;;;;;5.28;2.50;;;;;;;27.15;45.36;100546.44;5049104;28;20033;-73
2022/08/29 10:11:48;;;;;;;5.95;2.50;;;;;;;27.34;45.16;100537.50;5037919;28;20135;-73
2022/08/29 10:14:34;;;;;;;5.80;2.88;;;;;;;27.45;45.55;100545.25;5021180;28;20037;-73
2022/08/29 10:19:50;;;;;;;5.20;2.92;;;;;;;27.60;45.14;100543.97;5036566;28;20022;-73
2022/08/29 10:22:31;;;;;;;6.07;2.60;;;;;;;27.64;44.25;100544.81;5019201;28;20031;-73
2022/08/29 10:25:06;;;;;;;5.38;2.50;;;;;;;27.79;43.61;100537.84;5032239;28;20033;-73
2022/08/29 10:27:50;;;;;;;7.25;2.80;;;;;;;27.91;44.04;100530.09;5029330;28;20545;-73
2022/08/29 10:30:54;;;;;;;4.15;2.72;;;;;;;28.10;44.93;100535.31;5046842;28;20752;-73
2022/08/29 10:33:46;;;;;;;7.50;2.45;;;;;;;28.11;43.95;100548.38;5056959;28;20040;-73
2022/08/29 10:36:20;;;;;;;8.70;2.65;;;;;;;28.13;43.66;100545.91;5054186;28;20032;-73
2022/08/29 10:38:47;;;;;;;6.22;2.72;;;;;;;28.20;43.41;100545.09;5060818;28;20037;-73
2022/08/29 10:41:22;;;;;;;5.32;2.58;;;;;;;28.23;43.47;100550.78;5034450;28;20481;-73
2022/08/29 10:43:53;;;;;;;7.32;2.90;;;;;;;28.35;43.55;100545.81;5055427;28;20089;-74
2022/08/29 10:46:24;;;;;;;5.15;2.95;;;;;;;28.35;42.80;100531.53;5056878;28;20048;-73
2022/08/29 10:48:54;;;;;;;7.95;2.83;;;;;;;28.39;42.68;100524.59;5058159;28;20029;-73
2022/08/29 10:51:35;;;;;;;4.28;2.70;;;;;;;28.44;42.32;100526.22;5036991;28;20044;-73
2022/08/29 10:54:06;;;;;;;9.98;2.47;;;;;;;28.65;42.47;100531.00;5056858;28;20048;-73
2022/08/29 10:56:37;;;;;;;7.00;2.90;;;;;;;28.81;43.00;100533.34;5024337;28;20064;-74
2022/08/29 10:59:19;;;;;;;8.05;2.72;;;;;;;28.95;43.15;100536.09;5029825;28;20282;-73
2022/08/29 11:02:04;;;;;;;7.43;2.70;;;;;;;29.06;42.22;100536.88;5048007;28;20037;-73
2022/08/29 11:04:49;;;;;;;6.78;2.90;;;;;;;29.15;42.07;100540.06;5038262;28;20029;-73
2022/08/29 11:07:49;;;;;;;4.88;2.63;;;;;;;29.13;41.69;100533.94;5057766;28;20068;-73
2022/08/29 11:10:16;;;;;;;6.60;3.20;;;;;;;29.11;41.42;100536.44;5043134;28;20043;-73
2022/08/29 11:12:56;;;;;;;6.57;2.90;;;;;;;29.24;41.41;100527.31;5039440;28;20095;-73
2022/08/29 11:15:24;;;;;;;6.07;3.08;;;;;;;29.36;41.66;100541.09;5032304;28;20104;-73
2022/08/29 11:18:11;;;;;;;6.88;2.95;;;;;;;29.29;41.66;100532.59;5048437;28;20040;-73
2022/08/29 11:20:42;;;;;;;4.70;3.13;;;;;;;29.31;41.43;100532.97;5056117;28;20520;-73
2022/08/29 11:23:15;;;;;;;5.97;2.85;;;;;;;29.31;40.94;100535.81;5034991;28;20037;-73
2022/08/29 11:25:41;;;;;;;6.55;2.83;;;;;;;29.33;41.47;100519.06;5022222;28;20477;-73
2022/08/29 11:28:15;;;;;;;7.03;3.00;;;;;;;29.32;41.56;100528.88;5031574;28;20033;-73
2022/08/29 11:31:02;;;;;;;5.82;3.28;;;;;;;29.25;40.87;100523.22;5054280;28;20101;-73
2022/08/29 11:33:51;;;;;;;7.60;3.25;;;;;;;29.35;41.22;100510.88;5046021;28;20035;-73
2022/08/29 11:36:59;;;;;;;5.05;3.10;;;;;;;29.33;40.99;100510.47;5041450;28;20116;-73